Turnersville, New Jersey
Current Conditions -  °F | °C
As of 4:54 AM on Friday 28 Nov 2014 (Local Time) from KPHL Reporting Station
Few Clouds Few Clouds  
Wind Chill: -3°   Ceiling: Unl
Heat Index:   Visibility: 10mi
Dew Point: -4°   Wind: 8mph
Humidity: 67%   Direction: 290°WNW
Pressure: 30.15"   Gusts: NA
Location:  39.778°N, 75.0552°W
Report Text: KPHL 280954Z 29007KT 10SM FEW065 01/M04 A3015 RMK AO2 SLP210 T00111044 $
Loading
Personal Weather Stations






























Interactive Weather Map New forecast layout! Learn more

10-Day Weather Forecast

Advertisements
Track Severe Weather on mobile